createdAt,value
2019-05-18T00:00:47.135Z,100460.14
2019-05-18T00:03:15.676Z,100463.80
2019-05-18T00:05:44.117Z,100453.84
2019-05-18T00:08:12.593Z,100451.56
2019-05-18T00:10:41.020Z,100455.08
2019-05-18T00:13:09.398Z,100453.05
2019-05-18T00:15:38.273Z,100450.47
2019-05-18T00:18:06.726Z,100442.34
2019-05-18T00:20:35.207Z,100446.58
2019-05-18T00:23:03.714Z,100444.64
2019-05-18T00:25:32.124Z,100446.72
2019-05-18T00:28:00.664Z,100449.70
2019-05-18T00:30:29.483Z,100452.22
2019-05-18T00:32:57.970Z,100454.29
2019-05-18T00:35:26.483Z,100458.73
2019-05-18T00:37:55.029Z,100446.26
2019-05-18T00:40:23.569Z,100449.84
2019-05-18T00:42:51.994Z,100457.31
2019-05-18T00:45:20.560Z,100451.29
2019-05-18T00:47:49.066Z,100450.36
2019-05-18T00:50:17.946Z,100450.91
2019-05-18T00:52:46.749Z,100452.07
2019-05-18T00:55:15.527Z,100446.21
2019-05-18T00:57:43.978Z,100447.24
2019-05-18T01:00:13.521Z,100453.41
2019-05-18T01:02:42.097Z,100453.30
2019-05-18T01:05:10.591Z,100442.18
2019-05-18T01:07:39.027Z,100448.09
2019-05-18T01:10:08.252Z,100449.12
2019-05-18T01:12:36.725Z,100444.47
2019-05-18T01:15:27.405Z,100444.39
2019-05-18T01:17:57.732Z,100444.60
2019-05-18T01:20:26.006Z,100451.41
2019-05-18T01:22:54.432Z,100449.75
2019-05-18T01:25:22.927Z,100449.88
2019-05-18T01:27:51.365Z,100440.04
2019-05-18T01:30:19.817Z,100445.95
2019-05-18T01:32:48.268Z,100445.33
2019-05-18T01:35:17.156Z,100443.67
2019-05-18T01:37:45.541Z,100441.19
2019-05-18T01:40:14.532Z,100436.03
2019-05-18T01:42:42.954Z,100442.14
2019-05-18T01:45:16.732Z,100448.42
2019-05-18T01:47:42.228Z,100450.91
2019-05-18T01:50:11.600Z,100453.80
2019-05-18T01:52:40.060Z,100454.94
2019-05-18T01:55:08.701Z,100455.47
2019-05-18T01:57:37.210Z,100450.19
2019-05-18T02:00:06.488Z,100452.27
2019-05-18T02:02:35.062Z,100449.91
2019-05-18T02:05:04.621Z,100445.98
2019-05-18T02:07:33.218Z,100444.95
2019-05-18T02:10:02.227Z,100448.78
2019-05-18T02:12:30.896Z,100450.30
2019-05-18T02:14:59.358Z,100443.19
2019-05-18T02:17:27.818Z,100451.75
2019-05-18T02:19:56.313Z,100445.88
2019-05-18T02:22:24.813Z,100443.83
2019-05-18T02:24:53.302Z,100450.65
2019-05-18T02:27:21.685Z,100454.95
2019-05-18T02:29:50.124Z,100456.93
2019-05-18T02:32:18.544Z,100453.63
2019-05-18T02:34:46.901Z,100454.67
2019-05-18T02:37:15.374Z,100454.13
2019-05-18T02:39:43.769Z,100450.63
2019-05-18T02:42:12.534Z,100450.42
2019-05-18T02:44:41.327Z,100449.80
2019-05-18T02:47:09.793Z,100449.28
2019-05-18T02:49:38.233Z,100442.07
2019-05-18T02:52:06.726Z,100440.53
2019-05-18T02:54:35.234Z,100436.39
2019-05-18T02:57:03.781Z,100428.98
2019-05-18T02:59:32.235Z,100430.72
2019-05-18T03:02:00.622Z,100424.64
2019-05-18T03:04:29.078Z,100430.13
2019-05-18T03:06:57.878Z,100435.17
2019-05-18T03:09:26.307Z,100436.19
2019-05-18T03:11:54.874Z,100435.05
2019-05-18T03:14:23.310Z,100438.56
2019-05-18T03:16:51.779Z,100437.73
2019-05-18T03:19:20.318Z,100441.36
2019-05-18T03:21:48.862Z,100439.38
2019-05-18T03:24:17.655Z,100445.06
2019-05-18T03:26:46.191Z,100440.72
2019-05-18T03:29:14.914Z,100450.00
2019-05-18T03:31:43.683Z,100446.60
2019-05-18T03:34:12.503Z,100448.97
2019-05-18T03:36:41.049Z,100444.83
2019-05-18T03:39:09.533Z,100447.11
2019-05-18T03:41:37.962Z,100446.48
2019-05-18T03:44:06.484Z,100439.27
2019-05-18T03:46:35.014Z,100443.28
2019-05-18T03:49:03.458Z,100446.67
2019-05-18T03:51:32.021Z,100440.92
2019-05-18T03:54:00.545Z,100438.31
2019-05-18T03:56:29.457Z,100434.72
2019-05-18T03:58:58.003Z,100447.41
2019-05-18T04:01:26.726Z,100443.39
2019-05-18T04:03:55.213Z,100436.38
2019-05-18T04:06:23.777Z,100438.04
2019-05-18T04:08:52.210Z,100435.75
2019-05-18T04:11:20.682Z,100439.47
2019-05-18T04:13:49.144Z,100432.36
2019-05-18T04:16:17.517Z,100435.23
2019-05-18T04:18:45.898Z,100434.30
2019-05-18T04:21:14.375Z,100435.95
2019-05-18T04:23:43.070Z,100430.00
2019-05-18T04:26:11.494Z,100433.39
2019-05-18T04:28:40.263Z,100432.69
2019-05-18T04:31:09.029Z,100429.57
2019-05-18T04:33:37.437Z,100429.30
2019-05-18T04:36:05.904Z,100431.03
2019-05-18T04:38:34.289Z,100428.78
2019-05-18T04:41:03.163Z,100424.22
2019-05-18T04:43:31.547Z,100425.16
2019-05-18T04:46:00.023Z,100426.38
2019-05-18T04:48:28.414Z,100438.88
2019-05-18T04:50:56.835Z,100434.73
2019-05-18T04:53:25.614Z,100438.25
2019-05-18T04:55:54.376Z,100437.84
2019-05-18T04:58:22.768Z,100432.88
2019-05-18T05:00:51.369Z,100431.66
2019-05-18T05:03:20.024Z,100427.52
2019-05-18T05:05:48.398Z,100428.66
2019-05-18T05:08:17.695Z,100426.92
2019-05-18T05:10:46.074Z,100428.34
2019-05-18T05:13:14.551Z,100431.77
2019-05-18T05:15:43.249Z,100426.59
2019-05-18T05:18:11.801Z,100421.54
2019-05-18T05:20:40.517Z,100424.64
2019-05-18T05:23:09.013Z,100425.15
2019-05-18T05:25:37.446Z,100426.37
2019-05-18T05:28:06.169Z,100422.64
2019-05-18T05:30:34.632Z,100416.25
2019-05-18T05:33:03.124Z,100415.53
2019-05-18T05:35:31.579Z,100422.33
2019-05-18T05:38:00.068Z,100423.75
2019-05-18T05:40:28.538Z,100424.38
2019-05-18T05:42:57.010Z,100421.98
2019-05-18T05:45:25.543Z,100424.44
2019-05-18T05:47:54.079Z,100422.84
2019-05-18T05:50:34.576Z,100435.44
2019-05-18T05:52:52.818Z,100434.20
2019-05-18T05:55:21.497Z,100430.66
2019-05-18T05:57:49.990Z,100431.69
2019-05-18T06:00:18.690Z,100434.77
2019-05-18T06:02:47.095Z,100439.27
2019-05-18T06:05:16.066Z,100439.03
2019-05-18T06:07:44.670Z,100434.03
2019-05-18T06:10:13.183Z,100437.30
2019-05-18T06:12:41.656Z,100441.20
2019-05-18T06:15:11.028Z,100443.05
2019-05-18T06:17:39.752Z,100444.39
2019-05-18T06:20:09.466Z,100443.36
2019-05-18T06:22:38.060Z,100443.99
2019-05-18T06:25:09.561Z,100443.69
2019-05-18T06:27:38.027Z,100434.91
2019-05-18T06:30:07.483Z,100434.83
2019-05-18T06:32:36.250Z,100432.05
2019-05-18T06:35:05.441Z,100436.55
2019-05-18T06:37:33.909Z,100437.78
2019-05-18T06:40:02.413Z,100439.69
2019-05-18T06:42:30.988Z,100440.84
2019-05-18T06:44:59.417Z,100437.83
2019-05-18T06:47:28.545Z,100440.42
2019-05-18T06:49:57.008Z,100439.47
2019-05-18T06:52:25.589Z,100435.57
2019-05-18T06:54:54.060Z,100439.12
2019-05-18T06:57:23.946Z,100431.48
2019-05-18T06:59:52.361Z,100438.72
2019-05-18T07:02:20.843Z,100432.02
2019-05-18T07:04:49.280Z,100439.03
2019-05-18T07:07:17.816Z,100438.59
2019-05-18T07:09:46.295Z,100434.05
2019-05-18T07:12:14.807Z,100439.73
2019-05-18T07:14:43.204Z,100446.05
2019-05-18T07:17:11.817Z,100437.33
2019-05-18T07:19:40.345Z,100435.83
2019-05-18T07:22:08.884Z,100432.80
2019-05-18T07:24:37.645Z,100422.22
2019-05-18T07:27:06.101Z,100421.50
2019-05-18T07:29:34.813Z,100427.10
2019-05-18T07:32:03.259Z,100419.94
2019-05-18T07:34:31.872Z,100421.30
2019-05-18T07:37:01.406Z,100423.64
2019-05-18T07:39:29.876Z,100425.23
2019-05-18T07:41:58.394Z,100424.14
2019-05-18T07:44:26.790Z,100429.09
2019-05-18T07:46:55.319Z,100426.14
2019-05-18T07:49:23.881Z,100420.52
2019-05-18T07:51:52.319Z,100412.98
2019-05-18T07:54:20.909Z,100398.64
2019-05-18T07:56:49.429Z,100407.41
2019-05-18T07:59:19.860Z,100402.87
2019-05-18T08:01:48.094Z,100393.56
2019-05-18T08:04:16.649Z,100396.53
2019-05-18T08:06:45.161Z,100393.47
2019-05-18T08:09:13.602Z,100390.82
2019-05-18T08:11:42.036Z,100395.84
2019-05-18T08:14:10.525Z,100388.73
2019-05-18T08:16:39.054Z,100384.58
2019-05-18T08:19:07.604Z,100394.57
2019-05-18T08:21:36.427Z,100391.85
2019-05-18T08:24:04.915Z,100391.70
2019-05-18T08:26:33.798Z,100395.31
2019-05-18T08:29:02.201Z,100389.80
2019-05-18T08:31:30.711Z,100387.64
2019-05-18T08:33:59.088Z,100383.20
2019-05-18T08:36:27.667Z,100374.90
2019-05-18T08:38:56.105Z,100369.19
2019-05-18T08:41:24.591Z,100366.53
2019-05-18T08:43:53.157Z,100359.28
2019-05-18T08:46:21.619Z,100358.33
2019-05-18T08:48:50.074Z,100355.77
2019-05-18T08:51:18.475Z,100349.11
2019-05-18T08:53:46.962Z,100345.13
2019-05-18T08:56:15.448Z,100346.03
2019-05-18T08:58:43.793Z,100340.89
2019-05-18T09:01:12.264Z,100338.66
2019-05-18T09:03:40.698Z,100344.81
2019-05-18T09:06:09.195Z,100340.59
2019-05-18T09:08:37.647Z,100337.70
2019-05-18T09:11:06.124Z,100337.37
2019-05-18T09:13:34.608Z,100325.92
2019-05-18T09:16:03.224Z,100331.06
2019-05-18T09:18:31.711Z,100325.17
2019-05-18T09:21:00.183Z,100326.08
2019-05-18T09:23:28.735Z,100319.97
2019-05-18T09:25:57.476Z,100322.44
2019-05-18T09:28:25.954Z,100324.81
2019-05-18T09:30:54.413Z,100323.23
2019-05-18T09:33:22.903Z,100317.06
2019-05-18T09:35:51.280Z,100323.77
2019-05-18T09:38:19.961Z,100325.73
2019-05-18T09:40:48.479Z,100329.56
2019-05-18T09:43:16.963Z,100317.07
2019-05-18T09:45:45.497Z,100319.59
2019-05-18T09:48:14.098Z,100317.12
2019-05-18T09:50:42.623Z,100307.30
2019-05-18T09:53:11.191Z,100309.20
2019-05-18T09:55:39.683Z,100313.52
2019-05-18T09:58:08.299Z,100309.73
2019-05-18T10:00:39.089Z,100303.73
2019-05-18T10:03:07.153Z,100290.95
2019-05-18T10:05:35.539Z,100306.48
2019-05-18T10:08:04.007Z,100299.13
2019-05-18T10:10:33.775Z,100290.19
2019-05-18T10:13:02.508Z,100289.09
2019-05-18T10:15:30.954Z,100278.48
2019-05-18T10:17:59.493Z,100278.20
2019-05-18T10:20:27.989Z,100273.31
2019-05-18T10:23:11.776Z,100284.75
2019-05-18T10:25:26.818Z,100281.20
2019-05-18T10:27:55.312Z,100281.50
2019-05-18T10:30:23.925Z,100274.64
2019-05-18T10:32:52.645Z,100273.27
2019-05-18T10:35:21.094Z,100273.54
2019-05-18T10:37:49.917Z,100256.84
2019-05-18T10:40:19.856Z,100253.87
2019-05-18T10:42:48.325Z,100258.94
2019-05-18T10:45:17.081Z,100254.70
2019-05-18T10:47:45.995Z,100241.14
2019-05-18T10:50:14.684Z,100246.36
2019-05-18T10:52:43.141Z,100246.06
2019-05-18T10:55:12.161Z,100244.45
2019-05-18T10:57:40.690Z,100246.62
2019-05-18T11:00:10.917Z,100235.22
2019-05-18T11:02:39.760Z,100237.91
2019-05-18T11:05:08.338Z,100227.02
2019-05-18T11:07:36.842Z,100216.67
2019-05-18T11:10:07.139Z,100225.39
2019-05-18T11:12:35.650Z,100220.73
2019-05-18T11:15:06.379Z,100223.75
2019-05-18T11:17:34.912Z,100214.25
2019-05-18T11:20:04.585Z,100216.66
2019-05-18T11:22:33.082Z,100223.66
2019-05-18T11:25:01.446Z,100215.37
2019-05-18T11:27:29.898Z,100223.81
2019-05-18T11:29:58.367Z,100225.95
2019-05-18T11:32:26.895Z,100223.26
2019-05-18T11:34:55.440Z,100212.63
2019-05-18T11:37:23.846Z,100204.55
2019-05-18T11:39:52.292Z,100219.12
2019-05-18T11:42:20.835Z,100211.70
2019-05-18T11:44:49.293Z,100206.67
2019-05-18T11:47:17.799Z,100214.58
2019-05-18T11:49:46.372Z,100213.33
2019-05-18T11:52:14.791Z,100218.09
2019-05-18T11:54:43.276Z,100213.33
2019-05-18T11:57:11.811Z,100200.55
2019-05-18T11:59:40.415Z,100209.95
2019-05-18T12:02:08.894Z,100198.35
2019-05-18T12:04:37.308Z,100203.51
2019-05-18T12:07:05.856Z,100206.55
2019-05-18T12:09:34.468Z,100200.69
2019-05-18T12:12:02.902Z,100198.38
2019-05-18T12:14:31.446Z,100202.80
2019-05-18T12:17:00.062Z,100208.52
2019-05-18T12:19:28.891Z,100204.56
2019-05-18T12:21:57.381Z,100203.39
2019-05-18T12:24:26.230Z,100207.07
2019-05-18T12:26:54.810Z,100201.54
2019-05-18T12:29:23.713Z,100193.37
2019-05-18T12:31:52.496Z,100191.17
2019-05-18T12:34:20.998Z,100185.98
2019-05-18T12:36:49.993Z,100190.63
2019-05-18T12:39:18.443Z,100194.84
2019-05-18T12:41:47.008Z,100186.09
2019-05-18T12:44:15.482Z,100187.08
2019-05-18T12:46:44.031Z,100182.20
2019-05-18T12:49:12.494Z,100181.25
2019-05-18T12:51:40.952Z,100181.92
2019-05-18T12:54:09.863Z,100177.38
2019-05-18T12:56:38.426Z,100173.28
2019-05-18T12:59:06.862Z,100175.09
2019-05-18T13:01:35.274Z,100169.35
2019-05-18T13:04:04.739Z,100167.67
2019-05-18T13:06:33.138Z,100164.53
2019-05-18T13:09:01.576Z,100166.45
2019-05-18T13:11:30.033Z,100161.34
2019-05-18T13:13:58.581Z,100170.46
2019-05-18T13:16:27.001Z,100162.37
2019-05-18T13:18:55.355Z,100155.55
2019-05-18T13:21:23.760Z,100158.03
2019-05-18T13:23:52.570Z,100153.67
2019-05-18T13:26:21.459Z,100156.88
2019-05-18T13:28:49.978Z,100156.70
2019-05-18T13:31:18.503Z,100151.08
2019-05-18T13:33:47.424Z,100148.97
2019-05-18T13:36:15.846Z,100143.00
2019-05-18T13:38:44.588Z,100142.98
2019-05-18T13:41:13.126Z,100141.38
2019-05-18T13:43:41.647Z,100134.90
2019-05-18T13:46:10.109Z,100137.45
2019-05-18T13:48:38.555Z,100137.69
2019-05-18T13:51:07.448Z,100131.14
2019-05-18T13:53:36.199Z,100131.66
2019-05-18T13:56:04.995Z,100123.85
2019-05-18T13:58:33.490Z,100128.34
2019-05-18T14:01:02.019Z,100122.34
2019-05-18T14:03:30.871Z,100119.72
2019-05-18T14:05:59.323Z,100128.53
2019-05-18T14:08:28.121Z,100117.65
2019-05-18T14:10:56.841Z,100126.00
2019-05-18T14:13:25.166Z,100124.84
2019-05-18T14:15:53.562Z,100117.34
2019-05-18T14:18:21.990Z,100123.72
2019-05-18T14:20:50.501Z,100122.88
2019-05-18T14:23:18.958Z,100126.66
2019-05-18T14:25:47.422Z,100128.50
2019-05-18T14:28:16.185Z,100125.88
2019-05-18T14:30:44.573Z,100122.98
2019-05-18T14:33:13.054Z,100122.27
2019-05-18T14:35:41.948Z,100122.78
2019-05-18T14:38:10.437Z,100121.87
2019-05-18T14:40:38.889Z,100117.20
2019-05-18T14:43:07.358Z,100111.89
2019-05-18T14:45:35.989Z,100112.81
2019-05-18T14:48:04.706Z,100112.81
2019-05-18T14:50:54.230Z,100115.72
2019-05-18T14:53:22.747Z,100117.80
2019-05-18T14:55:51.203Z,100115.06
2019-05-18T14:58:20.110Z,100119.08
2019-05-18T15:00:48.483Z,100116.66
2019-05-18T15:03:17.114Z,100119.54
2019-05-18T15:05:45.551Z,100119.64
2019-05-18T15:08:14.030Z,100115.83
2019-05-18T15:10:42.600Z,100125.98
2019-05-18T15:13:11.077Z,100118.27
2019-05-18T15:15:39.644Z,100123.32
2019-05-18T15:18:08.462Z,100124.30
2019-05-18T15:20:37.023Z,100122.12
2019-05-18T15:23:05.835Z,100123.84
2019-05-18T15:25:49.656Z,100117.59
2019-05-18T15:28:04.924Z,100124.20
2019-05-18T15:30:33.720Z,100124.23
2019-05-18T15:33:02.239Z,100115.71
2019-05-18T15:35:30.682Z,100120.81
2019-05-18T15:37:59.144Z,100125.02
2019-05-18T15:40:27.599Z,100123.02
2019-05-18T15:42:56.074Z,100121.94
2019-05-18T15:45:24.896Z,100114.34
2019-05-18T15:47:53.538Z,100112.98
2019-05-18T15:50:22.043Z,100104.86
2019-05-18T15:52:50.496Z,100109.15
2019-05-18T15:55:19.229Z,100108.94
2019-05-18T15:57:48.069Z,100099.66
2019-05-18T16:00:18.004Z,100096.55
2019-05-18T16:02:46.883Z,100103.17
2019-05-18T16:05:17.146Z,100109.17
2019-05-18T16:07:45.873Z,100102.22
2019-05-18T16:10:14.822Z,100104.81
2019-05-18T16:12:43.320Z,100105.08
2019-05-18T16:15:12.081Z,100105.37
2019-05-18T16:17:40.643Z,100101.62
2019-05-18T16:20:09.557Z,100097.64
2019-05-18T16:22:38.077Z,100100.36
2019-05-18T16:25:07.866Z,100095.95
2019-05-18T16:27:36.651Z,100104.24
2019-05-18T16:30:09.365Z,100097.66
2019-05-18T16:32:37.826Z,100095.95
2019-05-18T16:35:08.248Z,100096.72
2019-05-18T16:37:37.107Z,100101.58
2019-05-18T16:40:06.661Z,100100.81
2019-05-18T16:42:35.407Z,100108.29
2019-05-18T16:45:05.846Z,100104.11
2019-05-18T16:47:34.628Z,100110.68
2019-05-18T16:50:03.167Z,100108.79
2019-05-18T16:52:31.613Z,100103.59
2019-05-18T16:54:59.986Z,100108.80
2019-05-18T16:57:28.443Z,100101.07
2019-05-18T16:59:57.053Z,100100.60
2019-05-18T17:02:31.820Z,100103.05
2019-05-18T17:04:56.476Z,100105.70
2019-05-18T17:07:24.914Z,100108.97
2019-05-18T17:09:53.414Z,100107.06
2019-05-18T17:12:22.308Z,100110.88
2019-05-18T17:14:50.769Z,100100.25
2019-05-18T17:17:19.326Z,100114.97
2019-05-18T17:19:48.271Z,100111.50
2019-05-18T17:22:16.703Z,100108.30
2019-05-18T17:24:45.099Z,100108.02
2019-05-18T17:27:13.550Z,100103.94
2019-05-18T17:29:42.068Z,100114.80
2019-05-18T17:32:10.626Z,100115.09
2019-05-18T17:34:39.214Z,100111.56
2019-05-18T17:37:07.739Z,100111.80
2019-05-18T17:39:36.199Z,100116.77
2019-05-18T17:42:05.353Z,100115.45
2019-05-18T17:44:34.126Z,100118.44
2019-05-18T17:47:03.009Z,100115.96
2019-05-18T17:49:31.655Z,100115.72
2019-05-18T17:52:00.246Z,100123.34
2019-05-18T17:54:28.647Z,100119.25
2019-05-18T17:57:07.947Z,100117.37
2019-05-18T17:59:27.413Z,100123.92
2019-05-18T18:01:55.831Z,100126.11
2019-05-18T18:04:24.309Z,100122.31
2019-05-18T18:06:52.789Z,100126.66
2019-05-18T18:09:21.701Z,100130.20
2019-05-18T18:11:50.220Z,100126.67
2019-05-18T18:14:18.746Z,100127.20
2019-05-18T18:16:47.272Z,100131.05
2019-05-18T18:19:15.714Z,100123.41
2019-05-18T18:21:44.116Z,100134.83
2019-05-18T18:24:12.899Z,100133.72
2019-05-18T18:26:41.435Z,100135.35
2019-05-18T18:29:09.867Z,100134.00
2019-05-18T18:31:38.342Z,100135.90
2019-05-18T18:34:08.674Z,100136.70
2019-05-18T18:36:37.215Z,100136.17
2019-05-18T18:39:07.788Z,100135.08
2019-05-18T18:41:36.374Z,100141.06
2019-05-18T18:44:05.008Z,100136.16
2019-05-18T18:46:33.546Z,100140.75
2019-05-18T18:49:01.994Z,100146.76
2019-05-18T18:51:30.482Z,100143.20
2019-05-18T18:53:58.868Z,100139.97
2019-05-18T18:56:27.404Z,100145.92
2019-05-18T18:58:56.266Z,100154.88
2019-05-18T19:01:24.755Z,100154.05
2019-05-18T19:03:53.123Z,100160.30
2019-05-18T19:06:21.577Z,100156.20
2019-05-18T19:08:50.192Z,100164.34
2019-05-18T19:11:18.722Z,100167.27
2019-05-18T19:13:47.280Z,100172.42
2019-05-18T19:16:15.741Z,100176.21
2019-05-18T19:18:44.153Z,100178.61
2019-05-18T19:21:12.686Z,100175.63
2019-05-18T19:23:41.596Z,100187.27
2019-05-18T19:26:10.140Z,100189.71
2019-05-18T19:28:38.688Z,100194.28
2019-05-18T19:31:07.558Z,100196.16
2019-05-18T19:33:36.055Z,100196.39
2019-05-18T19:36:04.665Z,100196.94
2019-05-18T19:38:33.098Z,100200.70
2019-05-18T19:41:05.037Z,100205.27
2019-05-18T19:43:33.759Z,100209.05
2019-05-18T19:46:02.239Z,100210.87
2019-05-18T19:48:30.704Z,100205.45
2019-05-18T19:50:59.509Z,100208.61
2019-05-18T19:53:28.311Z,100206.15
2019-05-18T19:55:56.698Z,100207.73
2019-05-18T19:58:25.085Z,100209.02
2019-05-18T20:00:53.654Z,100217.95
2019-05-18T20:03:22.079Z,100219.34
2019-05-18T20:05:50.536Z,100219.55
2019-05-18T20:08:19.300Z,100219.55
2019-05-18T20:10:47.881Z,100216.84
2019-05-18T20:13:16.349Z,100214.41
2019-05-18T20:15:44.743Z,100218.17
2019-05-18T20:18:13.203Z,100221.95
2019-05-18T20:20:41.581Z,100221.38
2019-05-18T20:23:10.088Z,100227.34
2019-05-18T20:25:38.878Z,100228.09
2019-05-18T20:28:07.688Z,100228.62
2019-05-18T20:30:36.197Z,100226.95
2019-05-18T20:33:04.660Z,100226.09
2019-05-18T20:35:33.537Z,100226.87
2019-05-18T20:38:02.759Z,100224.63
2019-05-18T20:40:31.198Z,100231.07
2019-05-18T20:42:59.754Z,100229.67
2019-05-18T20:45:28.258Z,100227.46
2019-05-18T20:47:57.067Z,100224.70
2019-05-18T20:50:25.856Z,100226.64
2019-05-18T20:52:54.326Z,100224.64
2019-05-18T20:55:22.721Z,100224.09
2019-05-18T20:57:51.198Z,100229.44
2019-05-18T21:00:20.132Z,100215.36
2019-05-18T21:02:48.497Z,100218.30
2019-05-18T21:05:17.009Z,100214.16
2019-05-18T21:07:45.424Z,100217.60
2019-05-18T21:10:14.339Z,100217.89
2019-05-18T21:12:42.802Z,100221.66
2019-05-18T21:15:12.587Z,100217.06
2019-05-18T21:17:41.131Z,100227.32
2019-05-18T21:20:10.921Z,100224.03
2019-05-18T21:22:39.406Z,100221.03
2019-05-18T21:25:08.011Z,100223.13
2019-05-18T21:27:36.406Z,100224.47
2019-05-18T21:30:06.221Z,100218.14
2019-05-18T21:32:34.734Z,100217.36
2019-05-18T21:35:05.064Z,100212.91
2019-05-18T21:37:33.513Z,100213.16
2019-05-18T21:40:01.948Z,100206.86
2019-05-18T21:42:30.382Z,100210.16
2019-05-18T21:44:59.185Z,100208.50
2019-05-18T21:47:27.717Z,100203.24
2019-05-18T21:49:56.269Z,100201.07
2019-05-18T21:52:28.673Z,100206.19
2019-05-18T21:54:57.264Z,100200.42
2019-05-18T21:57:25.737Z,100201.44
2019-05-18T21:59:54.200Z,100202.17
2019-05-18T22:02:22.876Z,100199.70
2019-05-18T22:04:51.496Z,100202.17
2019-05-18T22:07:19.984Z,100194.58
2019-05-18T22:09:48.419Z,100199.42
2019-05-18T22:12:16.933Z,100197.23
2019-05-18T22:14:45.439Z,100198.58
2019-05-18T22:17:13.879Z,100203.61
2019-05-18T22:19:42.497Z,100203.30
2019-05-18T22:22:10.949Z,100205.41
2019-05-18T22:24:39.474Z,100208.53
2019-05-18T22:27:08.340Z,100198.66
2019-05-18T22:29:36.878Z,100205.44
2019-05-18T22:32:05.714Z,100213.23
2019-05-18T22:34:34.116Z,100215.36
2019-05-18T22:37:02.555Z,100221.52
2019-05-18T22:39:31.020Z,100220.35
2019-05-18T22:41:59.587Z,100219.80
2019-05-18T22:44:28.176Z,100217.34
2019-05-18T22:46:57.022Z,100225.38
2019-05-18T22:49:25.500Z,100221.84
2019-05-18T22:51:54.184Z,100220.52
2019-05-18T22:54:22.991Z,100218.80
2019-05-18T22:56:51.655Z,100220.09
2019-05-18T22:59:20.137Z,100212.73
2019-05-18T23:01:48.618Z,100212.52
2019-05-18T23:04:17.054Z,100211.17
2019-05-18T23:06:45.615Z,100214.38
2019-05-18T23:09:14.143Z,100215.67
2019-05-18T23:11:42.758Z,100214.72
2019-05-18T23:14:11.329Z,100221.40
2019-05-18T23:16:39.845Z,100218.22
2019-05-18T23:19:08.632Z,100211.06
2019-05-18T23:21:37.027Z,100212.02
2019-05-18T23:24:05.590Z,100207.93
2019-05-18T23:26:34.112Z,100213.34
2019-05-18T23:29:02.509Z,100211.69
2019-05-18T23:31:30.959Z,100205.23
2019-05-18T23:33:59.369Z,100206.82
2019-05-18T23:36:27.946Z,100198.42
2019-05-18T23:38:56.803Z,100200.77
2019-05-18T23:41:25.324Z,100201.89
2019-05-18T23:43:54.157Z,100188.01
2019-05-18T23:46:22.616Z,100191.31
2019-05-18T23:48:51.024Z,100183.34
2019-05-18T23:51:19.395Z,100185.11
2019-05-18T23:53:47.914Z,100190.13
2019-05-18T23:56:16.435Z,100194.09
2019-05-18T23:58:45.153Z,100191.11
